createdAt,value
2018-06-03T00:01:05.795Z,50.20
2018-06-03T00:05:08.287Z,50.48
2018-06-03T00:09:10.753Z,50.66
2018-06-03T00:13:13.283Z,50.61
2018-06-03T00:17:15.772Z,50.67
2018-06-03T00:21:30.813Z,50.75
2018-06-03T00:25:33.285Z,50.82
2018-06-03T00:29:35.782Z,50.77
2018-06-03T00:33:38.245Z,50.81
2018-06-03T00:37:40.743Z,51.09
2018-06-03T00:41:43.198Z,51.08
2018-06-03T00:45:45.675Z,51.28
2018-06-03T00:49:48.170Z,51.29
2018-06-03T00:53:50.648Z,51.33
2018-06-03T00:57:53.133Z,51.67
2018-06-03T01:01:55.595Z,51.58
2018-06-03T01:05:58.087Z,51.34
2018-06-03T01:10:00.569Z,51.13
2018-06-03T01:14:03.036Z,51.40
2018-06-03T01:18:05.533Z,51.65
2018-06-03T01:22:08.022Z,51.68
2018-06-03T01:26:10.512Z,51.42
2018-06-03T01:30:12.992Z,51.40
2018-06-03T01:34:15.500Z,51.50
2018-06-03T01:38:17.956Z,51.90
2018-06-03T01:42:20.430Z,52.06
2018-06-03T01:46:22.943Z,51.77
2018-06-03T01:50:25.384Z,51.73
2018-06-03T01:54:27.863Z,51.51
2018-06-03T01:58:30.351Z,51.38
2018-06-03T02:02:32.846Z,51.41
2018-06-03T02:06:35.303Z,51.35
2018-06-03T02:10:37.782Z,51.37
2018-06-03T02:14:40.270Z,51.33
2018-06-03T02:18:42.757Z,51.46
2018-06-03T02:22:45.203Z,51.62
2018-06-03T02:26:47.683Z,51.53
2018-06-03T02:30:50.142Z,51.76
2018-06-03T02:34:52.630Z,51.87
2018-06-03T02:38:55.108Z,52.01
2018-06-03T02:42:57.571Z,52.14
2018-06-03T02:47:00.081Z,52.39
2018-06-03T02:51:02.568Z,52.66
2018-06-03T02:55:05.017Z,52.86
2018-06-03T02:59:07.511Z,52.99
2018-06-03T03:03:09.991Z,53.12
2018-06-03T03:07:12.471Z,53.28
2018-06-03T03:11:14.964Z,53.36
2018-06-03T03:15:17.446Z,53.55
2018-06-03T03:19:19.945Z,53.63
2018-06-03T03:23:22.423Z,53.91
2018-06-03T03:27:24.903Z,54.05
2018-06-03T03:31:27.409Z,54.31
2018-06-03T03:35:29.866Z,55.00
2018-06-03T03:40:16.591Z,55.80
2018-06-03T03:44:20.036Z,56.03
2018-06-03T03:48:23.467Z,56.13
2018-06-03T03:52:26.875Z,56.55
2018-06-03T03:56:30.320Z,56.27
2018-06-03T04:00:33.750Z,56.48
2018-06-03T04:04:37.135Z,56.44
2018-06-03T04:08:40.556Z,56.16
2018-06-03T04:12:43.992Z,56.09
2018-06-03T04:16:47.454Z,56.59
2018-06-03T04:20:50.893Z,56.53
2018-06-03T04:24:54.292Z,56.89
2018-06-03T04:28:57.741Z,56.86
2018-06-03T04:33:01.202Z,56.83
2018-06-03T04:37:04.635Z,56.95
2018-06-03T04:41:08.072Z,57.65
2018-06-03T04:45:11.517Z,57.42
2018-06-03T04:49:14.972Z,57.42
2018-06-03T04:53:18.450Z,57.77
2018-06-03T04:57:21.901Z,57.93
2018-06-03T05:01:25.368Z,57.56
2018-06-03T05:05:28.855Z,57.90
2018-06-03T05:09:32.286Z,57.47
2018-06-03T05:13:35.751Z,57.27
2018-06-03T05:17:39.182Z,56.90
2018-06-03T05:21:42.636Z,56.67
2018-06-03T05:25:46.131Z,56.70
2018-06-03T05:29:49.609Z,56.59
2018-06-03T05:33:53.036Z,56.32
2018-06-03T05:37:56.524Z,56.08
2018-06-03T05:41:59.947Z,55.18
2018-06-03T05:46:03.464Z,55.29
2018-06-03T05:50:06.943Z,55.09
2018-06-03T05:54:10.458Z,55.20
2018-06-03T05:58:13.922Z,54.78
2018-06-03T06:02:17.358Z,54.39
2018-06-03T06:06:20.796Z,54.35
2018-06-03T06:10:24.256Z,54.10
2018-06-03T06:14:27.715Z,53.68
2018-06-03T06:18:31.169Z,54.06
2018-06-03T06:22:34.631Z,52.94
2018-06-03T06:26:38.051Z,53.26
2018-06-03T06:30:41.539Z,53.26
2018-06-03T06:34:44.987Z,53.77
2018-06-03T06:38:48.436Z,52.44
2018-06-03T06:42:51.873Z,52.60
2018-06-03T06:46:56.331Z,52.47
2018-06-03T06:50:59.788Z,52.21
2018-06-03T06:55:03.243Z,52.40
2018-06-03T06:59:06.696Z,52.00
2018-06-03T07:03:10.134Z,52.02
2018-06-03T07:07:13.558Z,51.73
2018-06-03T07:11:16.978Z,52.24
2018-06-03T07:15:20.434Z,51.42
2018-06-03T07:19:23.904Z,52.13
2018-06-03T07:23:27.306Z,51.16
2018-06-03T07:27:30.753Z,50.40
2018-06-03T07:31:34.219Z,50.65
2018-06-03T07:35:37.635Z,50.11
2018-06-03T07:39:41.058Z,50.47
2018-06-03T07:43:44.512Z,49.32
2018-06-03T07:47:47.982Z,48.67
2018-06-03T07:51:51.384Z,50.06
2018-06-03T07:55:54.851Z,49.47
2018-06-03T07:59:58.300Z,50.03
2018-06-03T08:04:01.728Z,48.79
2018-06-03T08:08:05.211Z,47.95
2018-06-03T08:12:08.621Z,48.21
2018-06-03T08:16:12.095Z,49.33
2018-06-03T08:20:15.556Z,48.00
2018-06-03T08:24:18.969Z,47.55
2018-06-03T08:28:22.418Z,47.98
2018-06-03T08:32:25.867Z,47.92
2018-06-03T08:36:29.303Z,47.54
2018-06-03T08:40:32.763Z,47.20
2018-06-03T08:44:36.179Z,47.31
2018-06-03T08:48:39.645Z,47.04
2018-06-03T08:52:43.120Z,46.96
2018-06-03T08:56:46.542Z,46.54
2018-06-03T09:00:50.359Z,46.23
2018-06-03T09:04:53.782Z,46.36
2018-06-03T09:08:57.225Z,47.62
2018-06-03T09:13:00.676Z,47.23
2018-06-03T09:17:04.166Z,46.92
2018-06-03T09:21:07.603Z,46.97
2018-06-03T09:25:11.069Z,46.02
2018-06-03T09:29:14.487Z,47.51
2018-06-03T09:33:17.916Z,47.06
2018-06-03T09:37:21.345Z,46.65
2018-06-03T09:41:24.768Z,46.81
2018-06-03T09:45:28.221Z,45.79
2018-06-03T09:49:31.687Z,45.27
2018-06-03T09:53:35.129Z,44.71
2018-06-03T09:57:38.576Z,45.68
2018-06-03T10:01:42.005Z,44.83
2018-06-03T10:05:45.434Z,44.32
2018-06-03T10:09:48.867Z,44.92
2018-06-03T10:13:52.274Z,43.63
2018-06-03T10:17:55.736Z,42.58
2018-06-03T10:21:59.181Z,42.96
2018-06-03T10:26:02.639Z,42.90
2018-06-03T10:30:06.132Z,42.41
2018-06-03T10:34:09.588Z,42.81
2018-06-03T10:38:13.024Z,43.05
2018-06-03T10:42:16.446Z,41.89
2018-06-03T10:46:19.879Z,41.79
2018-06-03T10:50:23.338Z,42.38
2018-06-03T10:54:26.822Z,41.63
2018-06-03T10:58:30.180Z,40.65
2018-06-03T11:02:33.623Z,41.24
2018-06-03T11:06:37.067Z,42.40
2018-06-03T11:10:40.522Z,38.93
2018-06-03T11:14:43.955Z,38.33
2018-06-03T11:18:47.413Z,38.42
2018-06-03T11:22:50.910Z,39.07
2018-06-03T11:26:54.386Z,36.88
2018-06-03T11:30:57.838Z,38.19
2018-06-03T11:35:01.259Z,37.89
2018-06-03T11:39:07.874Z,38.55
2018-06-03T11:43:11.314Z,38.44
2018-06-03T11:47:18.648Z,38.40
2018-06-03T11:51:22.063Z,38.36
2018-06-03T11:55:25.495Z,39.98
2018-06-03T11:59:40.588Z,39.10
2018-06-03T12:03:44.033Z,39.76
2018-06-03T12:07:47.453Z,38.92
2018-06-03T12:11:50.925Z,37.71
2018-06-03T12:15:54.437Z,37.85
2018-06-03T12:19:57.888Z,39.09
2018-06-03T12:24:01.396Z,39.24
2018-06-03T12:28:04.854Z,39.23
2018-06-03T12:32:08.347Z,39.63
2018-06-03T12:36:11.792Z,38.58
2018-06-03T12:40:15.335Z,39.21
2018-06-03T12:44:18.836Z,38.54
2018-06-03T12:48:22.319Z,38.91
2018-06-03T12:52:25.772Z,37.92
2018-06-03T12:56:29.212Z,36.30
2018-06-03T13:00:32.659Z,37.68
2018-06-03T13:04:36.078Z,36.94
2018-06-03T13:08:39.471Z,37.26
2018-06-03T13:12:42.905Z,38.53
2018-06-03T13:16:46.356Z,36.69
2018-06-03T13:20:49.772Z,37.79
2018-06-03T13:24:53.203Z,38.29
2018-06-03T13:28:56.646Z,37.74
2018-06-03T13:33:00.090Z,37.65
2018-06-03T13:37:03.521Z,37.22
2018-06-03T13:41:06.979Z,38.21
2018-06-03T13:45:10.438Z,39.11
2018-06-03T13:49:13.922Z,37.00
2018-06-03T13:53:17.349Z,36.60
2018-06-03T13:57:20.796Z,34.94
2018-06-03T14:01:24.326Z,36.89
2018-06-03T14:05:27.835Z,37.61
2018-06-03T14:09:31.271Z,36.59
2018-06-03T14:13:34.723Z,36.29
2018-06-03T14:17:38.173Z,36.40
2018-06-03T14:21:41.608Z,35.70
2018-06-03T14:25:45.037Z,36.31
2018-06-03T14:29:48.495Z,37.17
2018-06-03T14:33:52.004Z,36.73
2018-06-03T14:37:55.425Z,37.12
2018-06-03T14:41:58.893Z,37.99
2018-06-03T14:46:02.356Z,38.07
2018-06-03T14:50:05.791Z,38.38
2018-06-03T14:54:09.236Z,39.23
2018-06-03T14:58:12.675Z,38.41
2018-06-03T15:02:16.250Z,38.09
2018-06-03T15:06:19.695Z,36.57
2018-06-03T15:10:23.139Z,37.49
2018-06-03T15:14:26.571Z,40.15
2018-06-03T15:18:30.058Z,41.01
2018-06-03T15:22:33.513Z,41.07
2018-06-03T15:26:36.976Z,41.15
2018-06-03T15:30:40.423Z,40.87
2018-06-03T15:34:43.849Z,41.54
2018-06-03T15:38:47.314Z,41.06
2018-06-03T15:42:50.723Z,42.42
2018-06-03T15:46:54.160Z,42.12
2018-06-03T15:50:57.593Z,41.31
2018-06-03T15:55:01.050Z,41.25
2018-06-03T15:59:04.495Z,41.07
2018-06-03T16:03:08.020Z,41.33
2018-06-03T16:07:11.463Z,41.36
2018-06-03T16:11:14.863Z,41.47
2018-06-03T16:15:18.355Z,42.26
2018-06-03T16:19:21.840Z,41.62
2018-06-03T16:23:25.355Z,42.58
2018-06-03T16:27:28.894Z,43.80
2018-06-03T16:31:32.353Z,43.70
2018-06-03T16:35:35.781Z,43.34
2018-06-03T16:39:39.275Z,44.04
2018-06-03T16:43:43.236Z,43.41
2018-06-03T16:47:46.742Z,44.10
2018-06-03T16:51:50.241Z,44.23
2018-06-03T16:55:53.697Z,42.56
2018-06-03T16:59:57.220Z,43.40
2018-06-03T17:04:00.674Z,44.54
2018-06-03T17:08:04.144Z,43.41
2018-06-03T17:12:07.609Z,43.33
2018-06-03T17:16:11.167Z,44.45
2018-06-03T17:20:14.664Z,43.94
2018-06-03T17:24:18.062Z,43.45
2018-06-03T17:28:21.656Z,43.25
2018-06-03T17:32:25.454Z,43.28
2018-06-03T17:36:28.857Z,42.82
2018-06-03T17:40:32.332Z,44.61
2018-06-03T17:44:36.788Z,44.36
2018-06-03T17:48:40.223Z,44.08
2018-06-03T17:52:43.638Z,44.29
2018-06-03T17:56:47.111Z,44.92
2018-06-03T18:00:50.566Z,45.39
2018-06-03T18:04:54.252Z,45.21
2018-06-03T18:08:57.695Z,46.24
2018-06-03T18:13:01.216Z,47.25
2018-06-03T18:17:04.753Z,46.74
2018-06-03T18:21:08.186Z,47.41
2018-06-03T18:25:11.671Z,47.97
2018-06-03T18:29:15.159Z,48.23
2018-06-03T18:33:18.632Z,48.27
2018-06-03T18:37:22.057Z,48.20
2018-06-03T18:41:25.523Z,48.36
2018-06-03T18:45:28.960Z,48.69
2018-06-03T18:49:32.744Z,49.15
2018-06-03T18:53:36.150Z,48.89
2018-06-03T18:57:39.655Z,48.61
2018-06-03T19:01:43.069Z,49.01
2018-06-03T19:05:46.483Z,48.05
2018-06-03T19:09:49.909Z,48.21
2018-06-03T19:13:53.359Z,48.59
2018-06-03T19:17:56.789Z,48.81
2018-06-03T19:22:00.200Z,48.81
2018-06-03T19:26:03.742Z,49.10
2018-06-03T19:30:07.136Z,49.62
2018-06-03T19:34:10.577Z,49.49
2018-06-03T19:38:14.012Z,49.93
2018-06-03T19:42:17.438Z,50.71
2018-06-03T19:46:20.880Z,50.20
2018-06-03T19:50:24.363Z,50.87
2018-06-03T19:54:27.815Z,50.75
2018-06-03T19:58:31.297Z,50.44
2018-06-03T20:02:34.752Z,50.58
2018-06-03T20:06:38.216Z,51.28
2018-06-03T20:10:41.699Z,51.18
2018-06-03T20:14:45.160Z,51.52
2018-06-03T20:18:48.629Z,52.04
2018-06-03T20:22:52.138Z,51.70
2018-06-03T20:26:55.559Z,51.97
2018-06-03T20:30:58.987Z,52.42
2018-06-03T20:35:02.413Z,51.72
2018-06-03T20:39:07.179Z,52.32
2018-06-03T20:43:10.612Z,51.93
2018-06-03T20:47:14.055Z,51.76
2018-06-03T20:51:17.463Z,52.80
2018-06-03T20:55:20.901Z,51.91
2018-06-03T20:59:24.317Z,52.59
2018-06-03T21:03:27.759Z,52.24
2018-06-03T21:07:31.215Z,52.57
2018-06-03T21:11:34.779Z,53.35
2018-06-03T21:15:38.232Z,53.30
2018-06-03T21:19:41.736Z,53.27
2018-06-03T21:23:45.192Z,52.79
2018-06-03T21:27:48.647Z,52.92
2018-06-03T21:31:52.094Z,52.92
2018-06-03T21:35:55.569Z,53.34
2018-06-03T21:39:59.039Z,53.69
2018-06-03T21:44:02.456Z,53.26
2018-06-03T21:48:05.950Z,53.78
2018-06-03T21:52:09.402Z,53.89
2018-06-03T21:56:12.847Z,53.63
2018-06-03T22:00:16.309Z,53.79
2018-06-03T22:04:19.748Z,53.90
2018-06-03T22:08:23.196Z,54.67
2018-06-03T22:12:26.633Z,54.14
2018-06-03T22:16:30.073Z,55.37
2018-06-03T22:20:33.548Z,54.86
2018-06-03T22:24:36.975Z,54.45
2018-06-03T22:28:40.417Z,54.33
2018-06-03T22:32:43.907Z,54.93
2018-06-03T22:36:47.331Z,54.76
2018-06-03T22:40:50.769Z,55.16
2018-06-03T22:44:54.222Z,54.68
2018-06-03T22:48:57.764Z,54.17
2018-06-03T22:53:01.211Z,54.61
2018-06-03T22:58:08.228Z,55.20
2018-06-03T23:02:11.654Z,54.92
2018-06-03T23:06:15.110Z,54.70
2018-06-03T23:10:18.566Z,55.08
2018-06-03T23:14:22.050Z,54.64
2018-06-03T23:18:25.460Z,55.22
2018-06-03T23:22:28.961Z,55.29
2018-06-03T23:26:32.428Z,55.70
2018-06-03T23:30:35.824Z,55.70
2018-06-03T23:34:39.269Z,55.44
2018-06-03T23:38:42.751Z,56.50
2018-06-03T23:42:46.363Z,56.74
2018-06-03T23:46:49.768Z,57.51
2018-06-03T23:50:53.195Z,57.77
2018-06-03T23:54:56.643Z,57.48
2018-06-03T23:59:00.090Z,57.34
